createdAt,value
2023-03-08T00:00:18.143Z,6.93
2023-03-08T00:02:46.163Z,7.05
2023-03-08T00:05:14.154Z,7.35
2023-03-08T00:07:42.239Z,7.88
2023-03-08T00:10:12.023Z,5.78
2023-03-08T00:12:40.085Z,6.65
2023-03-08T00:15:10.262Z,7.75
2023-03-08T00:17:38.696Z,5.43
2023-03-08T00:20:07.240Z,5.65
2023-03-08T00:22:37.050Z,10.90
2023-03-08T00:25:05.637Z,5.50
2023-03-08T00:27:33.556Z,5.60
2023-03-08T00:30:01.560Z,6.20
2023-03-08T00:32:31.173Z,5.75
2023-03-08T00:34:59.090Z,6.20
2023-03-08T00:37:27.046Z,5.72
2023-03-08T00:39:55.209Z,5.28
2023-03-08T00:43:02.589Z,6.13
2023-03-08T00:45:30.563Z,5.72
2023-03-08T00:47:59.989Z,5.57
2023-03-08T00:50:28.027Z,5.13
2023-03-08T00:52:56.034Z,5.68
2023-03-08T00:55:24.019Z,5.57
2023-03-08T00:57:51.971Z,5.45
2023-03-08T01:00:20.487Z,5.57
2023-03-08T01:02:48.487Z,4.55
2023-03-08T01:05:17.988Z,5.55
2023-03-08T01:07:45.924Z,4.45
2023-03-08T01:10:13.992Z,7.53
2023-03-08T01:12:42.027Z,4.95
2023-03-08T01:15:10.394Z,4.80
2023-03-08T01:17:38.484Z,4.53
2023-03-08T01:20:07.629Z,4.53
2023-03-08T01:22:36.989Z,4.57
2023-03-08T01:25:05.303Z,4.63
2023-03-08T01:27:33.288Z,4.50
2023-03-08T01:30:01.286Z,4.88
2023-03-08T01:32:29.360Z,4.95
2023-03-08T01:35:02.173Z,4.88
2023-03-08T01:37:30.053Z,4.65
2023-03-08T01:39:59.461Z,3.92
2023-03-08T01:42:27.758Z,6.00
2023-03-08T01:44:56.682Z,4.30
2023-03-08T01:47:25.116Z,4.28
2023-03-08T01:49:53.927Z,4.65
2023-03-08T01:52:24.356Z,4.45
2023-03-08T01:54:53.363Z,6.25
2023-03-08T01:57:24.721Z,3.22
2023-03-08T01:59:52.789Z,3.90
2023-03-08T02:02:22.700Z,3.90
2023-03-08T02:04:50.590Z,4.60
2023-03-08T02:07:18.487Z,4.28
2023-03-08T02:09:46.409Z,4.10
2023-03-08T02:12:14.536Z,4.15
2023-03-08T02:14:44.204Z,3.92
2023-03-08T02:17:12.252Z,4.03
2023-03-08T02:19:43.808Z,3.75
2023-03-08T02:22:12.170Z,5.10
2023-03-08T02:24:41.572Z,3.30
2023-03-08T02:27:25.895Z,5.57
2023-03-08T02:29:53.852Z,5.87
2023-03-08T02:32:21.923Z,4.47
2023-03-08T02:34:49.923Z,3.13
2023-03-08T02:37:17.910Z,5.30
2023-03-08T02:39:47.300Z,3.35
2023-03-08T02:42:15.493Z,4.93
2023-03-08T02:44:43.436Z,4.07
2023-03-08T02:47:11.618Z,4.22
2023-03-08T02:49:39.652Z,5.70
2023-03-08T02:52:07.939Z,3.47
2023-03-08T02:54:35.953Z,4.32
2023-03-08T02:57:05.563Z,4.10
2023-03-08T02:59:33.559Z,3.35
2023-03-08T03:02:01.529Z,4.95
2023-03-08T03:04:30.793Z,3.70
2023-03-08T03:06:58.901Z,3.00
2023-03-08T03:09:26.926Z,3.15
2023-03-08T03:11:54.870Z,3.97
2023-03-08T03:14:24.151Z,3.85
2023-03-08T03:16:52.025Z,3.50
2023-03-08T03:19:19.990Z,4.03
2023-03-08T03:21:47.978Z,5.97
2023-03-08T03:24:16.029Z,8.90
2023-03-08T03:26:44.004Z,3.08
2023-03-08T03:29:11.951Z,3.25
2023-03-08T03:31:41.286Z,2.80
2023-03-08T03:34:09.481Z,3.58
2023-03-08T03:36:37.531Z,3.78
2023-03-08T03:39:05.553Z,2.97
2023-03-08T03:41:33.679Z,3.42
2023-03-08T03:44:01.598Z,3.15
2023-03-08T03:46:29.663Z,3.97
2023-03-08T03:48:59.366Z,2.70
2023-03-08T03:51:27.406Z,5.30
2023-03-08T03:53:55.353Z,3.17
2023-03-08T03:56:24.429Z,3.45
2023-03-08T03:58:52.497Z,2.72
2023-03-08T04:01:22.045Z,2.85
2023-03-08T04:03:50.269Z,3.67
2023-03-08T04:06:20.419Z,2.38
2023-03-08T04:08:48.332Z,3.03
2023-03-08T04:11:17.503Z,2.60
2023-03-08T04:13:45.575Z,2.75
2023-03-08T04:16:13.950Z,2.40
2023-03-08T04:18:41.924Z,3.17
2023-03-08T04:21:09.940Z,3.53
2023-03-08T04:23:39.360Z,3.30
2023-03-08T04:26:07.622Z,4.22
2023-03-08T04:28:35.973Z,2.63
2023-03-08T04:31:13.060Z,2.20
2023-03-08T04:33:41.060Z,4.28
2023-03-08T04:36:09.555Z,3.08
2023-03-08T04:38:39.005Z,2.50
2023-03-08T04:41:12.016Z,2.03
2023-03-08T04:43:40.463Z,5.05
2023-03-08T04:46:08.684Z,2.53
2023-03-08T04:48:36.698Z,2.00
2023-03-08T04:51:05.674Z,2.63
2023-03-08T04:53:33.675Z,2.92
2023-03-08T04:56:02.946Z,2.80
2023-03-08T04:58:31.020Z,3.53
2023-03-08T05:00:59.515Z,2.72
2023-03-08T05:03:27.613Z,2.53
2023-03-08T05:05:56.540Z,2.65
2023-03-08T05:08:24.595Z,2.08
2023-03-08T05:11:00.263Z,2.25
2023-03-08T05:13:30.940Z,2.72
2023-03-08T05:15:58.965Z,2.47
2023-03-08T05:18:26.943Z,2.92
2023-03-08T05:20:56.619Z,2.47
2023-03-08T05:23:27.569Z,2.83
2023-03-08T05:26:00.984Z,2.45
2023-03-08T05:28:35.496Z,5.18
2023-03-08T05:31:05.092Z,2.15
2023-03-08T05:33:34.829Z,3.50
2023-03-08T05:36:05.419Z,2.67
2023-03-08T05:38:35.072Z,3.75
2023-03-08T05:41:06.380Z,1.80
2023-03-08T05:43:36.990Z,2.67
2023-03-08T05:46:07.405Z,2.00
2023-03-08T05:48:36.999Z,2.58
2023-03-08T05:51:06.903Z,1.85
2023-03-08T05:53:35.436Z,1.80
2023-03-08T05:56:14.092Z,2.13
2023-03-08T05:58:47.901Z,2.20
2023-03-08T06:01:19.014Z,2.03
2023-03-08T06:03:47.028Z,1.90
2023-03-08T06:06:15.037Z,2.20
2023-03-08T06:08:43.048Z,1.92
2023-03-08T06:11:11.090Z,3.13
2023-03-08T06:13:39.050Z,2.85
2023-03-08T06:16:08.845Z,2.47
2023-03-08T06:18:36.918Z,2.00
2023-03-08T06:21:05.665Z,2.20
2023-03-08T06:23:33.685Z,1.83
2023-03-08T06:26:01.700Z,2.13
2023-03-08T06:28:29.794Z,1.88
2023-03-08T06:30:58.023Z,2.45
2023-03-08T06:33:28.424Z,1.63
2023-03-08T06:35:59.922Z,2.03
2023-03-08T06:38:29.889Z,2.00
2023-03-08T06:40:58.444Z,2.65
2023-03-08T06:43:26.663Z,2.47
2023-03-08T06:45:54.719Z,2.13
2023-03-08T06:48:22.776Z,2.20
2023-03-08T06:50:52.117Z,3.03
2023-03-08T06:53:20.135Z,2.30
2023-03-08T06:55:48.125Z,2.50
2023-03-08T06:58:16.038Z,2.25
2023-03-08T07:00:44.067Z,2.03
2023-03-08T07:03:12.388Z,6.78
2023-03-08T07:05:40.292Z,1.67
2023-03-08T07:08:09.608Z,2.58
2023-03-08T07:10:37.517Z,4.90
2023-03-08T07:13:05.432Z,3.03
2023-03-08T07:15:33.407Z,3.45
2023-03-08T07:18:01.339Z,1.52
2023-03-08T07:20:29.423Z,3.05
2023-03-08T07:22:57.540Z,2.55
2023-03-08T07:25:26.858Z,3.30
2023-03-08T07:27:54.884Z,3.58
2023-03-08T07:30:23.025Z,2.17
2023-03-08T07:32:51.251Z,8.75
2023-03-08T07:35:19.469Z,2.50
2023-03-08T07:37:47.487Z,5.05
2023-03-08T07:40:16.333Z,2.33
2023-03-08T07:42:45.729Z,9.68
2023-03-08T07:45:13.851Z,4.05
2023-03-08T07:47:41.948Z,7.63
2023-03-08T07:50:11.461Z,4.28
2023-03-08T07:52:39.449Z,6.78
2023-03-08T07:55:09.733Z,3.53
2023-03-08T07:57:37.802Z,3.92
2023-03-08T08:00:08.623Z,2.28
2023-03-08T08:02:36.563Z,4.13
2023-03-08T08:05:05.073Z,5.93
2023-03-08T08:07:33.076Z,6.05
2023-03-08T08:10:01.131Z,4.38
2023-03-08T08:12:29.179Z,4.40
2023-03-08T08:14:57.925Z,3.53
2023-03-08T08:17:27.230Z,2.85
2023-03-08T08:19:55.270Z,3.60
2023-03-08T08:22:23.330Z,2.25
2023-03-08T08:24:51.270Z,2.35
2023-03-08T08:27:19.206Z,2.85
2023-03-08T08:30:06.180Z,3.15
2023-03-08T08:32:35.954Z,2.60
2023-03-08T08:35:04.059Z,3.08
2023-03-08T08:37:32.778Z,4.63
2023-03-08T08:40:00.805Z,2.47
2023-03-08T08:42:28.763Z,4.65
2023-03-08T08:44:56.823Z,2.65
2023-03-08T08:47:24.725Z,2.55
2023-03-08T08:49:54.593Z,3.88
2023-03-08T08:52:22.670Z,2.72
2023-03-08T08:54:50.739Z,2.33
2023-03-08T08:57:18.730Z,2.47
2023-03-08T08:59:47.532Z,2.20
2023-03-08T09:02:15.763Z,1.95
2023-03-08T09:04:44.003Z,2.70
2023-03-08T09:07:13.430Z,2.30
2023-03-08T09:09:41.361Z,2.15
2023-03-08T09:12:09.813Z,2.85
2023-03-08T09:22:20.728Z,1.98
2023-03-08T09:24:50.168Z,1.25
2023-03-08T09:27:18.013Z,2.05
2023-03-08T09:33:36.971Z,1.38
2023-03-08T09:36:05.270Z,1.80
2023-03-08T09:38:34.660Z,2.90
2023-03-08T09:41:09.969Z,2.15
2023-03-08T09:48:05.264Z,2.30
2023-03-08T09:50:39.454Z,1.35
2023-03-08T09:53:21.619Z,2.65
2023-03-08T09:55:52.640Z,1.48
2023-03-08T10:09:49.026Z,2.03
2023-03-08T10:12:22.305Z,2.38
2023-03-08T10:22:27.909Z,1.92
2023-03-08T10:24:58.416Z,2.50
2023-03-08T10:27:28.844Z,1.98
2023-03-08T10:33:48.393Z,1.48
2023-03-08T10:36:19.266Z,1.38
2023-03-08T10:38:57.847Z,2.47
2023-03-08T10:41:25.928Z,1.50
2023-03-08T11:07:26.750Z,1.20
2023-03-08T11:10:06.451Z,2.08
2023-03-08T11:12:34.532Z,1.30
2023-03-08T11:22:52.422Z,1.83
2023-03-08T11:25:30.750Z,2.40
2023-03-08T11:28:05.193Z,2.67
2023-03-08T11:30:39.358Z,1.77
2023-03-08T11:33:32.645Z,2.15
2023-03-08T11:36:03.694Z,2.13
2023-03-08T11:38:33.581Z,1.58
2023-03-08T11:41:05.086Z,1.58
2023-03-08T11:54:55.783Z,0.98
2023-03-08T11:57:23.897Z,1.88
2023-03-08T11:59:52.931Z,1.95
2023-03-08T12:02:22.040Z,1.48
2023-03-08T12:05:01.749Z,1.48
2023-03-08T12:07:32.711Z,1.80
2023-03-08T12:10:04.177Z,1.08
2023-03-08T12:12:32.796Z,1.38
2023-03-08T12:15:03.737Z,1.00
2023-03-08T12:17:33.448Z,1.00
2023-03-08T12:20:01.464Z,1.48
2023-03-08T12:22:35.716Z,3.33
2023-03-08T12:25:09.815Z,1.10
2023-03-08T12:27:40.751Z,1.60
2023-03-08T12:30:15.567Z,1.02
2023-03-08T12:32:43.841Z,1.23
2023-03-08T12:35:30.978Z,1.02
2023-03-08T12:38:02.761Z,1.73
2023-03-08T12:40:37.968Z,1.75
2023-03-08T12:43:07.592Z,1.13
2023-03-08T12:45:35.548Z,1.15
2023-03-08T12:48:11.049Z,1.13
2023-03-08T12:50:41.846Z,1.02
2023-03-08T12:53:23.241Z,1.58
2023-03-08T12:56:02.917Z,1.27
2023-03-08T12:58:31.281Z,1.00
2023-03-08T13:01:00.271Z,1.00
2023-03-08T13:03:29.972Z,1.20
2023-03-08T13:05:57.934Z,1.02
2023-03-08T13:08:32.222Z,0.80
2023-03-08T13:11:05.574Z,1.58
2023-03-08T13:13:43.942Z,1.35
2023-03-08T13:16:24.223Z,1.42
2023-03-08T13:18:56.780Z,0.93
2023-03-08T13:21:28.642Z,1.17
2023-03-08T13:23:59.427Z,1.58
2023-03-08T13:26:51.250Z,0.82
2023-03-08T13:29:20.403Z,2.97
2023-03-08T13:31:48.576Z,0.90
2023-03-08T13:34:29.560Z,1.05
2023-03-08T13:36:57.624Z,0.70
2023-03-08T13:39:26.389Z,1.90
2023-03-08T13:42:05.652Z,1.33
2023-03-08T13:44:33.580Z,0.93
2023-03-08T13:47:03.992Z,1.17
2023-03-08T13:49:33.057Z,0.65
2023-03-08T13:52:02.560Z,1.40
2023-03-08T13:54:33.374Z,1.65
2023-03-08T13:57:03.952Z,0.82
2023-03-08T13:59:32.157Z,1.48
2023-03-08T14:02:00.123Z,1.20
2023-03-08T14:04:28.728Z,0.88
2023-03-08T14:06:57.577Z,0.95
2023-03-08T14:09:25.899Z,0.68
2023-03-08T14:12:00.800Z,1.25
2023-03-08T14:14:32.125Z,1.00
2023-03-08T14:17:00.194Z,0.82
2023-03-08T14:19:28.994Z,1.25
2023-03-08T14:21:57.619Z,1.00
2023-03-08T14:24:26.606Z,1.00
2023-03-08T14:26:55.976Z,1.13
2023-03-08T14:29:24.247Z,0.95
2023-03-08T14:32:02.147Z,0.75
2023-03-08T14:34:34.881Z,0.95
2023-03-08T14:37:05.979Z,1.20
2023-03-08T14:39:34.756Z,1.30
2023-03-08T14:42:10.527Z,1.00
2023-03-08T14:44:38.646Z,0.80
2023-03-08T14:47:12.157Z,1.20
2023-03-08T14:49:40.412Z,1.08
2023-03-08T14:52:20.213Z,1.05
2023-03-08T14:54:48.221Z,0.82
2023-03-08T14:57:18.542Z,2.35
2023-03-08T14:59:46.729Z,0.93
2023-03-08T15:02:16.815Z,1.63
2023-03-08T15:04:44.846Z,1.20
2023-03-08T15:07:17.945Z,1.20
2023-03-08T15:09:45.974Z,0.98
2023-03-08T15:12:14.040Z,1.17
2023-03-08T15:14:42.046Z,1.00
2023-03-08T15:17:09.907Z,1.20
2023-03-08T15:19:39.300Z,0.80
2023-03-08T15:22:07.637Z,1.42
2023-03-08T15:24:35.795Z,1.25
2023-03-08T15:27:03.797Z,0.73
2023-03-08T15:29:32.700Z,1.00
2023-03-08T15:32:00.780Z,1.13
2023-03-08T15:34:28.883Z,1.20
2023-03-08T15:36:58.323Z,2.08
2023-03-08T15:39:26.236Z,0.85
2023-03-08T15:41:54.651Z,1.10
2023-03-08T15:44:22.756Z,1.00
2023-03-08T15:46:52.707Z,1.92
2023-03-08T15:49:20.969Z,1.27
2023-03-08T15:51:48.977Z,1.25
2023-03-08T15:54:18.362Z,2.30
2023-03-08T15:56:46.308Z,0.93
2023-03-08T15:59:14.282Z,1.58
2023-03-08T16:01:42.305Z,1.02
2023-03-08T16:04:10.361Z,1.20
2023-03-08T16:06:38.361Z,1.10
2023-03-08T16:09:06.428Z,0.82
2023-03-08T16:11:35.864Z,1.23
2023-03-08T16:14:03.858Z,0.88
2023-03-08T16:16:44.356Z,1.10
2023-03-08T16:19:13.108Z,1.90
2023-03-08T16:21:41.112Z,1.10
2023-03-08T16:24:09.347Z,1.20
2023-03-08T16:26:40.011Z,0.93
2023-03-08T16:29:09.059Z,1.10
2023-03-08T16:31:38.368Z,1.83
2023-03-08T16:34:06.663Z,1.92
2023-03-08T16:36:34.792Z,2.00
2023-03-08T16:39:02.777Z,3.90
2023-03-08T16:41:30.917Z,1.80
2023-03-08T16:44:00.584Z,3.78
2023-03-08T16:46:29.221Z,2.47
2023-03-08T16:48:57.416Z,3.25
2023-03-08T16:51:26.441Z,2.45
2023-03-08T16:53:54.501Z,2.22
2023-03-08T16:56:23.773Z,2.05
2023-03-08T16:58:51.815Z,2.38
2023-03-08T17:01:21.195Z,1.42
2023-03-08T17:03:49.277Z,2.25
2023-03-08T17:06:18.063Z,1.80
2023-03-08T17:08:46.092Z,2.92
2023-03-08T17:11:17.530Z,2.00
2023-03-08T17:13:47.788Z,2.08
2023-03-08T17:16:15.747Z,1.90
2023-03-08T17:18:45.196Z,2.28
2023-03-08T17:21:13.190Z,2.35
2023-03-08T17:23:41.245Z,4.28
2023-03-08T17:26:10.142Z,4.78
2023-03-08T17:28:38.505Z,9.18
2023-03-08T17:31:08.803Z,5.63
2023-03-08T17:33:36.911Z,4.43
2023-03-08T17:36:06.538Z,5.28
2023-03-08T17:38:34.652Z,4.95
2023-03-08T17:41:05.388Z,6.28
2023-03-08T17:43:33.417Z,3.30
2023-03-08T17:46:02.016Z,3.72
2023-03-08T17:48:30.909Z,5.53
2023-03-08T17:51:02.863Z,6.43
2023-03-08T17:53:32.401Z,7.53
2023-03-08T17:56:01.899Z,6.38
2023-03-08T17:58:29.979Z,6.18
2023-03-08T18:00:58.088Z,7.25
2023-03-08T18:03:26.234Z,6.78
2023-03-08T18:05:54.258Z,5.80
2023-03-08T18:08:22.275Z,6.43
2023-03-08T18:10:51.593Z,9.20
2023-03-08T18:13:19.622Z,5.88
2023-03-08T18:15:47.804Z,5.63
2023-03-08T18:18:17.609Z,7.13
2023-03-08T18:20:45.534Z,9.13
2023-03-08T18:23:14.163Z,7.82
2023-03-08T18:25:42.137Z,5.60
2023-03-08T18:28:12.054Z,7.90
2023-03-08T18:30:39.926Z,6.05
2023-03-08T18:33:07.824Z,7.10
2023-03-08T18:35:35.758Z,6.50
2023-03-08T18:38:03.709Z,6.68
2023-03-08T18:40:31.631Z,5.82
2023-03-08T18:42:59.663Z,9.07
2023-03-08T18:45:29.052Z,7.68
2023-03-08T18:47:57.067Z,7.53
2023-03-08T18:50:25.159Z,9.88
2023-03-08T18:52:53.207Z,7.35
2023-03-08T18:55:21.218Z,5.63
2023-03-08T18:57:49.226Z,7.45
2023-03-08T19:04:10.149Z,8.32
2023-03-08T19:06:38.146Z,6.18
2023-03-08T19:09:10.205Z,5.57
2023-03-08T19:11:38.218Z,5.47
2023-03-08T19:14:06.394Z,5.38
2023-03-08T19:17:24.219Z,6.28
2023-03-08T19:19:53.514Z,5.03
2023-03-08T19:22:21.439Z,4.50
2023-03-08T19:24:49.421Z,5.75
2023-03-08T19:27:17.321Z,5.63
2023-03-08T19:29:45.335Z,5.80
2023-03-08T19:32:16.042Z,5.47
2023-03-08T19:34:44.833Z,5.20
2023-03-08T19:37:15.114Z,5.30
2023-03-08T19:39:43.892Z,6.22
2023-03-08T19:42:13.349Z,4.65
2023-03-08T19:44:41.368Z,3.90
2023-03-08T19:47:09.977Z,7.90
2023-03-08T19:49:38.739Z,4.43
2023-03-08T19:52:07.324Z,5.95
2023-03-08T19:54:36.710Z,6.25
2023-03-08T19:57:04.759Z,4.72
2023-03-08T19:59:32.731Z,4.50
2023-03-08T20:02:00.668Z,5.13
2023-03-08T20:04:29.410Z,3.45
2023-03-08T20:07:00.084Z,5.22
2023-03-08T20:09:28.146Z,7.32
2023-03-08T20:11:59.058Z,4.63
2023-03-08T20:14:27.923Z,5.05
2023-03-08T20:16:56.100Z,6.43
2023-03-08T20:19:24.253Z,5.20
2023-03-08T20:21:52.208Z,4.43
2023-03-08T20:24:20.755Z,5.50
2023-03-08T20:26:48.818Z,5.57
2023-03-08T20:29:18.506Z,4.53
2023-03-08T20:31:48.209Z,4.40
2023-03-08T20:34:16.213Z,3.45
2023-03-08T20:36:44.333Z,4.28
2023-03-08T20:39:12.374Z,4.60
2023-03-08T20:41:40.312Z,2.95
2023-03-08T20:44:08.233Z,3.42
2023-03-08T20:46:37.682Z,3.80
2023-03-08T20:49:05.592Z,3.42
2023-03-08T20:51:33.601Z,3.28
2023-03-08T20:54:01.585Z,3.08
2023-03-08T20:56:29.555Z,3.80
2023-03-08T20:58:57.682Z,5.00
2023-03-08T21:01:26.882Z,3.58
2023-03-08T21:03:56.317Z,3.13
2023-03-08T21:06:25.773Z,3.63
2023-03-08T21:08:53.745Z,3.10
2023-03-08T21:11:21.811Z,3.85
2023-03-08T21:13:49.897Z,2.83
2023-03-08T21:16:18.713Z,3.30
2023-03-08T21:18:50.086Z,3.35
2023-03-08T21:21:24.100Z,3.50
2023-03-08T21:23:54.592Z,3.75
2023-03-08T21:26:23.650Z,3.17
2023-03-08T21:28:52.753Z,3.17
2023-03-08T21:31:21.111Z,3.08
2023-03-08T21:33:49.186Z,3.33
2023-03-08T21:36:17.235Z,3.08
2023-03-08T21:38:46.314Z,2.72
2023-03-08T21:41:18.651Z,3.90
2023-03-08T21:43:46.721Z,3.92
2023-03-08T21:46:14.890Z,2.60
2023-03-08T21:48:42.893Z,3.63
2023-03-08T21:51:10.997Z,2.85
2023-03-08T21:53:39.085Z,2.65
2023-03-08T21:56:09.313Z,3.08
2023-03-08T21:58:37.312Z,3.10
2023-03-08T22:01:05.500Z,2.83
2023-03-08T22:03:33.632Z,2.72
2023-03-08T22:06:01.787Z,2.38
2023-03-08T22:08:32.620Z,3.13
2023-03-08T22:11:00.557Z,2.72
2023-03-08T22:13:29.986Z,3.72
2023-03-08T22:16:16.310Z,2.70
2023-03-08T22:18:45.606Z,2.70
2023-03-08T22:21:13.685Z,2.50
2023-03-08T22:23:44.686Z,2.80
2023-03-08T22:26:14.362Z,3.53
2023-03-08T22:28:44.753Z,2.33
2023-03-08T22:31:15.656Z,2.50
2023-03-08T22:33:46.290Z,2.90
2023-03-08T22:36:16.111Z,2.97
2023-03-08T22:38:45.075Z,3.08
2023-03-08T22:41:16.071Z,2.67
2023-03-08T22:43:47.719Z,3.13
2023-03-08T22:46:18.639Z,2.38
2023-03-08T22:48:48.429Z,2.83
2023-03-08T22:51:16.929Z,1.90
2023-03-08T22:53:48.370Z,6.00
2023-03-08T22:56:19.699Z,2.30
2023-03-08T22:58:50.093Z,2.92
2023-03-08T23:01:20.206Z,2.80
2023-03-08T23:03:50.207Z,2.35
2023-03-08T23:06:19.730Z,2.60
2023-03-08T23:08:48.986Z,2.90
2023-03-08T23:11:20.252Z,2.45
2023-03-08T23:13:56.085Z,2.58
2023-03-08T23:16:25.273Z,2.30
2023-03-08T23:18:54.728Z,4.47
2023-03-08T23:21:24.833Z,2.88
2023-03-08T23:23:52.785Z,2.00
2023-03-08T23:26:30.290Z,2.30
2023-03-08T23:29:03.263Z,2.42
2023-03-08T23:31:33.810Z,2.58
2023-03-08T23:34:03.153Z,2.65
2023-03-08T23:36:33.002Z,2.38
2023-03-08T23:39:04.037Z,2.25
2023-03-08T23:41:33.407Z,2.10
2023-03-08T23:44:04.452Z,2.67
2023-03-08T23:46:33.879Z,2.78
2023-03-08T23:49:03.234Z,2.05
2023-03-08T23:51:33.686Z,2.30
2023-03-08T23:54:03.136Z,2.20
2023-03-08T23:56:37.967Z,2.63
2023-03-08T23:59:12.738Z,2.17
